Time;durP1;ratioP1;P1;durP2;ratioP2;P2;SDS_P1;SDS_P2;PMS_P1;PMS_P2;Temp;Humidity;BMP_temperature;BMP_pressure;BME280_temperature;BME280_humidity;BME280_pressure;Samples;Min_cycle;Max_cycle;Signal;HPM_P1;HPM_P2
2023/08/25 00:00:59;;;;;;;;;12.00;12.00;;;;;26.21;100.00;100615.44;5055355;28;58030;-73
2023/08/25 00:03:24;;;;;;;;;12.33;12.00;;;;;26.13;100.00;100619.44;5059687;28;45410;-73
2023/08/25 00:05:55;;;;;;;;;11.33;11.00;;;;;26.13;100.00;100611.31;5055455;28;45512;-74
2023/08/25 00:08:21;;;;;;;;;13.67;12.33;;;;;26.12;100.00;100612.28;5055556;28;45662;-74
2023/08/25 00:10:47;;;;;;;;;12.67;9.33;;;;;26.12;100.00;100611.41;5055358;28;45507;-73
2023/08/25 00:13:13;;;;;;;;;11.33;11.33;;;;;26.07;100.00;100608.97;5055276;28;45375;-73
2023/08/25 00:15:40;;;;;;;;;10.67;10.67;;;;;26.07;100.00;100602.69;5055198;28;45490;-73
2023/08/25 00:18:06;;;;;;;;;11.33;8.67;;;;;26.05;100.00;100596.50;5055401;28;47442;-73
2023/08/25 00:20:31;;;;;;;;;10.00;10.00;;;;;26.07;100.00;100599.97;5055888;28;45435;-75
2023/08/25 00:22:57;;;;;;;;;9.33;9.33;;;;;26.05;100.00;100597.38;5054736;28;55891;-73
2023/08/25 00:25:22;;;;;;;;;11.67;11.33;;;;;26.03;100.00;100601.97;5057625;28;45241;-73
2023/08/25 00:27:48;;;;;;;;;12.00;12.00;;;;;26.01;100.00;100601.22;5057321;28;48548;-74
2023/08/25 00:30:14;;;;;;;;;10.00;10.00;;;;;26.00;100.00;100593.19;5041661;28;45323;-73
2023/08/25 00:32:39;;;;;;;;;9.00;9.00;;;;;26.07;100.00;100591.88;5053393;28;45316;-73
2023/08/25 00:35:05;;;;;;;;;11.00;11.00;;;;;26.03;100.00;100585.75;5065016;28;45299;-73
2023/08/25 00:37:30;;;;;;;;;13.00;11.00;;;;;25.96;100.00;100575.38;5064935;28;45763;-73
2023/08/25 00:39:55;;;;;;;;;14.67;11.00;;;;;25.91;100.00;100572.06;5054246;28;64568;-73
2023/08/25 00:42:21;;;;;;;;;12.33;11.00;;;;;25.88;100.00;100564.97;5068035;28;58251;-73
2023/08/25 00:44:46;;;;;;;;;10.00;10.00;;;;;25.82;100.00;100570.75;5058118;28;57674;-73
2023/08/25 00:47:12;;;;;;;;;13.67;12.00;;;;;25.83;100.00;100573.38;5057615;28;58215;-73
2023/08/25 00:49:38;;;;;;;;;9.67;9.67;;;;;25.78;100.00;100572.75;5066354;28;45296;-73
2023/08/25 00:52:04;;;;;;;;;8.67;8.67;;;;;25.79;100.00;100579.03;5047030;28;45298;-73
2023/08/25 00:54:30;;;;;;;;;9.00;9.00;;;;;25.78;100.00;100575.47;5059019;28;45558;-72
2023/08/25 00:56:56;;;;;;;;;12.67;9.67;;;;;25.77;100.00;100578.22;5051863;28;46414;-74
2023/08/25 00:59:22;;;;;;;;;13.67;11.33;;;;;25.80;100.00;100575.38;5057896;28;59950;-73
2023/08/25 01:01:47;;;;;;;;;10.00;10.00;;;;;25.79;100.00;100577.22;5058845;28;45196;-73
2023/08/25 01:04:13;;;;;;;;;10.00;10.00;;;;;25.75;100.00;100582.88;5040702;28;45491;-74
2023/08/25 01:06:39;;;;;;;;;11.00;8.67;;;;;25.73;100.00;100584.75;5048358;28;45431;-73
2023/08/25 01:09:05;;;;;;;;;9.67;8.00;;;;;25.69;100.00;100585.88;5057786;28;45258;-73
2023/08/25 01:11:33;;;;;;;;;11.67;9.67;;;;;25.67;100.00;100580.53;5058349;28;45392;-73
2023/08/25 01:14:08;;;;;;;;;9.33;9.33;;;;;25.64;100.00;100580.72;5058204;28;45561;-73
2023/08/25 01:16:37;;;;;;;;;7.00;7.00;;;;;25.63;100.00;100587.09;5047726;28;45906;-73
2023/08/25 01:19:05;;;;;;;;;9.00;9.00;;;;;25.64;100.00;100591.56;5058095;28;45528;-73
2023/08/25 01:21:34;;;;;;;;;11.00;9.00;;;;;25.66;100.00;100583.34;5058427;28;45414;-73
2023/08/25 01:24:10;;;;;;;;;12.00;9.33;;;;;25.63;100.00;100589.81;5058152;28;45422;-73
2023/08/25 01:26:37;;;;;;;;;10.00;10.00;;;;;25.60;100.00;100585.44;5040129;28;47465;-73
2023/08/25 01:29:02;;;;;;;;;10.33;10.33;;;;;25.63;100.00;100592.50;5039908;28;45273;-73
2023/08/25 01:31:27;;;;;;;;;13.33;13.00;;;;;25.66;100.00;100589.63;5040312;28;45702;-73
2023/08/25 01:33:53;;;;;;;;;10.33;10.33;;;;;25.65;100.00;100584.31;5057649;28;48906;-73
2023/08/25 01:37:12;;;;;;;;;13.33;11.67;;;;;25.66;100.00;100578.81;5041558;28;47876;-73
2023/08/25 01:39:40;;;;;;;;;9.67;9.67;;;;;25.63;100.00;100570.88;4975932;28;45579;-73
2023/08/25 01:42:07;;;;;;;;;12.33;11.00;;;;;25.60;100.00;100580.03;5054543;28;45447;-73
2023/08/25 01:44:33;;;;;;;;;11.67;11.67;;;;;25.57;100.00;100576.63;5057783;28;45527;-73
2023/08/25 01:47:01;;;;;;;;;14.67;11.33;;;;;25.58;100.00;100568.44;5039454;28;46355;-72
2023/08/25 01:49:27;;;;;;;;;10.00;10.00;;;;;25.60;100.00;100569.19;5056405;28;45458;-73
2023/08/25 01:51:53;;;;;;;;;13.67;11.33;;;;;25.65;100.00;100565.38;5057252;28;45393;-73
2023/08/25 01:54:19;;;;;;;;;10.00;10.00;;;;;25.62;100.00;100571.84;5056945;28;56519;-74
2023/08/25 01:56:44;;;;;;;;;11.00;11.00;;;;;25.61;100.00;100581.75;5039276;28;51153;-73
2023/08/25 01:59:09;;;;;;;;;12.00;11.00;;;;;25.55;100.00;100579.41;5057557;28;45193;-75
2023/08/25 02:01:35;;;;;;;;;11.33;10.00;;;;;25.56;100.00;100581.13;5057157;28;45396;-76
2023/08/25 02:04:00;;;;;;;;;11.00;11.00;;;;;25.59;100.00;100569.28;5057315;28;45311;-73
2023/08/25 02:06:25;;;;;;;;;11.33;11.33;;;;;25.60;100.00;100579.16;5056996;28;60862;-73
2023/08/25 02:08:51;;;;;;;;;11.67;10.00;;;;;25.59;100.00;100566.59;5057319;28;45499;-73
2023/08/25 02:11:16;;;;;;;;;12.00;11.00;;;;;25.57;100.00;100566.69;5056561;28;55319;-73
2023/08/25 02:13:42;;;;;;;;;10.33;9.67;;;;;25.54;100.00;100572.25;5057482;28;45522;-74
2023/08/25 02:16:07;;;;;;;;;13.00;12.00;;;;;25.53;100.00;100581.31;5056537;28;61589;-73
2023/08/25 02:18:32;;;;;;;;;12.00;12.00;;;;;25.51;100.00;100572.41;5056745;28;48899;-73
2023/08/25 02:20:58;;;;;;;;;10.00;10.00;;;;;25.54;100.00;100566.84;5056561;28;53565;-74
2023/08/25 02:23:23;;;;;;;;;14.33;10.00;;;;;25.55;100.00;100552.38;5056928;28;45759;-73
2023/08/25 02:25:48;;;;;;;;;12.67;12.67;;;;;25.55;100.00;100546.94;5056661;28;45280;-73
2023/08/25 02:28:14;;;;;;;;;9.00;9.00;;;;;25.50;100.00;100549.03;5056058;28;56494;-73
2023/08/25 02:30:39;;;;;;;;;20.33;15.00;;;;;25.54;100.00;100556.03;5050184;28;58537;-73
2023/08/25 02:33:06;;;;;;;;;10.33;10.33;;;;;25.54;100.00;100534.41;5056760;28;59941;-74
2023/08/25 02:35:31;;;;;;;;;11.00;10.00;;;;;25.55;100.00;100530.72;5056350;28;47874;-73
2023/08/25 02:37:59;;;;;;;;;11.67;11.67;;;;;25.52;100.00;100503.88;5053481;28;45333;-74
2023/08/25 02:40:26;;;;;;;;;15.00;15.00;;;;;25.51;100.00;100521.03;5057254;28;45261;-76
2023/08/25 02:42:52;;;;;;;;;12.67;11.67;;;;;25.50;100.00;100513.03;5056062;28;45585;-74
2023/08/25 02:45:18;;;;;;;;;19.33;16.33;;;;;25.49;100.00;100511.28;5056264;28;45316;-73
2023/08/25 02:47:43;;;;;;;;;16.67;14.67;;;;;25.48;100.00;100510.41;5055480;28;51797;-73
2023/08/25 02:50:09;;;;;;;;;20.00;18.00;;;;;25.52;100.00;100511.13;5047258;28;45284;-74
2023/08/25 02:52:34;;;;;;;;;18.67;15.33;;;;;25.54;100.00;100507.38;5056753;28;45464;-73
2023/08/25 02:55:00;;;;;;;;;19.00;16.00;;;;;25.54;100.00;100488.44;5056827;28;45641;-73
2023/08/25 02:57:25;;;;;;;;;16.33;14.67;;;;;25.57;100.00;100506.34;5056108;28;45390;-75
2023/08/25 02:59:51;;;;;;;;;16.67;14.67;;;;;25.58;100.00;100508.94;5056441;28;52890;-74
2023/08/25 03:02:16;;;;;;;;;22.33;20.33;;;;;25.62;100.00;100504.25;5056682;28;45307;-73
2023/08/25 03:04:41;;;;;;;;;21.67;20.67;;;;;25.64;100.00;100505.00;5055816;28;50907;-73
2023/08/25 03:07:07;;;;;;;;;21.00;19.67;;;;;25.70;100.00;100509.19;5056143;28;48349;-73
2023/08/25 03:09:32;;;;;;;;;23.67;20.33;;;;;25.67;100.00;100518.34;5055760;28;45359;-73
2023/08/25 03:11:58;;;;;;;;;17.00;17.00;;;;;25.70;100.00;100523.59;5056511;28;45316;-75
2023/08/25 03:14:26;;;;;;;;;22.00;19.67;;;;;25.72;100.00;100540.59;5055401;28;45641;-73
2023/08/25 03:16:52;;;;;;;;;21.33;21.33;;;;;25.71;100.00;100559.63;5056173;28;45420;-73
2023/08/25 03:19:17;;;;;;;;;26.67;24.00;;;;;25.75;100.00;100564.81;5056360;28;45480;-75
2023/08/25 03:21:43;;;;;;;;;27.33;23.00;;;;;25.70;100.00;100560.59;5055882;28;47332;-73
2023/08/25 03:24:08;;;;;;;;;31.67;26.67;;;;;25.74;100.00;100576.59;5055410;28;63999;-73
2023/08/25 03:26:33;;;;;;;;;30.00;26.33;;;;;25.73;100.00;100582.06;5056319;28;45375;-74
2023/08/25 03:28:59;;;;;;;;;34.33;30.67;;;;;25.69;100.00;100591.28;5056184;28;45543;-73
2023/08/25 03:31:24;;;;;;;;;31.67;29.00;;;;;25.67;100.00;100598.59;5052067;28;45585;-75
2023/08/25 03:33:49;;;;;;;;;34.33;31.00;;;;;25.66;100.00;100608.56;5055678;28;51274;-73
2023/08/25 03:36:15;;;;;;;;;35.33;31.67;;;;;25.65;100.00;100600.53;5056236;28;45846;-73
2023/08/25 03:38:40;;;;;;;;;35.00;31.67;;;;;25.66;100.00;100603.13;5053440;28;53204;-73
2023/08/25 03:41:05;;;;;;;;;36.67;33.00;;;;;25.67;100.00;100587.78;5055645;28;52953;-73
2023/08/25 03:43:31;;;;;;;;;42.00;35.67;;;;;25.72;100.00;100594.69;5055270;28;45696;-75
2023/08/25 03:45:56;;;;;;;;;31.33;30.33;;;;;25.73;100.00;100590.19;5056151;28;45230;-72
2023/08/25 03:48:23;;;;;;;;;35.33;30.33;;;;;25.76;100.00;100596.31;5053602;28;45526;-74
2023/08/25 03:50:48;;;;;;;;;44.00;34.67;;;;;25.75;100.00;100582.88;5038004;28;45510;-73
2023/08/25 03:53:14;;;;;;;;;41.33;33.33;;;;;25.79;100.00;100576.34;5055422;28;51884;-73
2023/08/25 03:55:40;;;;;;;;;42.67;33.67;;;;;25.79;100.00;100566.38;5055893;28;45817;-73
2023/08/25 03:58:05;;;;;;;;;40.00;34.25;;;;;25.84;100.00;100564.28;5055889;28;45451;-72
2023/08/25 04:00:31;;;;;;;;;38.50;33.50;;;;;25.85;100.00;100566.03;5058100;28;45487;-73
2023/08/25 04:02:56;;;;;;;;;46.75;36.50;;;;;25.88;100.00;100577.63;5059246;28;46366;-73
2023/08/25 04:05:21;;;;;;;;;34.33;30.67;;;;;25.90;100.00;100584.72;5059151;28;49454;-73
2023/08/25 04:07:48;;;;;;;;;44.67;36.00;;;;;25.96;100.00;100575.38;5058968;28;45565;-73
2023/08/25 04:10:14;;;;;;;;;43.00;37.00;;;;;25.97;100.00;100579.81;5059277;28;46217;-73
2023/08/25 04:12:39;;;;;;;;;42.00;35.25;;;;;26.04;100.00;100568.53;5058973;28;47616;-74
2023/08/25 04:15:05;;;;;;;;;40.33;33.67;;;;;26.05;100.00;100569.44;5058974;28;45474;-73
2023/08/25 04:17:34;;;;;;;;;45.33;36.33;;;;;26.04;100.00;100576.66;5058097;28;45369;-74
2023/08/25 04:20:00;;;;;;;;;40.00;34.33;;;;;26.05;100.00;100562.19;5059154;28;45387;-73
2023/08/25 04:22:25;;;;;;;;;44.00;37.50;;;;;26.03;100.00;100568.66;5058251;28;45816;-73
2023/08/25 04:24:51;;;;;;;;;41.33;34.67;;;;;26.00;100.00;100556.19;5058365;28;45403;-74
2023/08/25 04:27:16;;;;;;;;;38.67;33.33;;;;;26.03;100.00;100547.00;5058929;28;45454;-76
2023/08/25 04:29:42;;;;;;;;;43.75;36.00;;;;;26.03;100.00;100550.56;5057112;28;51659;-73
2023/08/25 04:32:08;;;;;;;;;41.00;32.67;;;;;26.04;100.00;100557.72;5057916;28;47177;-73
2023/08/25 04:34:33;;;;;;;;;45.75;36.75;;;;;26.05;100.00;100548.66;5058091;28;45304;-73
2023/08/25 04:36:58;;;;;;;;;45.75;37.75;;;;;26.04;100.00;100541.50;5058802;28;48894;-74
2023/08/25 04:39:24;;;;;;;;;47.25;38.25;;;;;26.01;100.00;100536.28;5055441;28;53572;-73
2023/08/25 04:41:50;;;;;;;;;46.00;36.50;;;;;26.02;100.00;100540.72;5060020;28;47486;-73
2023/08/25 04:44:15;;;;;;;;;46.25;39.25;;;;;26.04;100.00;100541.50;5058050;28;54154;-73
2023/08/25 04:46:40;;;;;;;;;43.00;36.25;;;;;26.03;100.00;100549.69;5058684;28;45449;-73
2023/08/25 04:49:06;;;;;;;;;44.00;38.00;;;;;26.02;100.00;100546.13;5057505;28;45252;-73
2023/08/25 04:51:31;;;;;;;;;46.50;38.75;;;;;26.00;100.00;100547.19;5057713;28;52384;-73
2023/08/25 04:53:56;;;;;;;;;44.50;35.50;;;;;26.03;100.00;100547.00;5058454;28;45368;-75
2023/08/25 04:56:22;;;;;;;;;46.25;36.50;;;;;26.05;100.00;100547.81;5058340;28;45407;-73
2023/08/25 04:58:47;;;;;;;;;47.67;36.67;;;;;26.05;100.00;100545.97;5058708;28;45678;-74
2023/08/25 05:01:13;;;;;;;;;52.50;41.75;;;;;26.05;100.00;100545.97;5058265;28;58124;-73
2023/08/25 05:03:39;;;;;;;;;45.00;37.00;;;;;26.08;100.00;100545.78;5058412;28;45372;-73
2023/08/25 05:06:04;;;;;;;;;48.00;38.67;;;;;26.03;100.00;100539.75;5058393;28;45491;-73
2023/08/25 05:08:30;;;;;;;;;47.25;39.25;;;;;26.01;100.00;100540.81;5058779;28;45249;-75
2023/08/25 05:10:55;;;;;;;;;43.25;35.50;;;;;26.01;100.00;100530.00;5056682;28;46502;-73
2023/08/25 05:13:20;;;;;;;;;37.00;33.25;;;;;25.99;100.00;100521.94;5058217;28;45357;-73
2023/08/25 05:15:46;;;;;;;;;44.50;38.75;;;;;25.93;100.00;100513.31;5057518;28;58368;-73
2023/08/25 05:18:11;;;;;;;;;32.33;30.33;;;;;25.91;100.00;100518.81;5058889;28;45399;-73
2023/08/25 05:20:36;;;;;;;;;46.33;37.33;;;;;25.94;100.00;100539.41;5057557;28;46063;-73
2023/08/25 05:23:02;;;;;;;;;44.67;37.00;;;;;25.86;100.00;100531.75;5058606;28;45496;-73
2023/08/25 05:25:28;;;;;;;;;43.00;36.00;;;;;25.85;100.00;100535.41;5057996;28;45448;-75
2023/08/25 05:27:53;;;;;;;;;39.25;34.00;;;;;25.82;100.00;100555.38;5058333;28;45399;-73
2023/08/25 05:30:19;;;;;;;;;36.33;31.33;;;;;25.77;100.00;100548.47;5041223;28;47695;-74
2023/08/25 05:32:45;;;;;;;;;44.00;36.00;;;;;25.75;100.00;100556.69;5057989;28;45333;-74
2023/08/25 05:35:11;;;;;;;;;41.67;36.33;;;;;25.75;100.00;100550.41;5057634;28;45376;-74
2023/08/25 05:37:36;;;;;;;;;45.00;36.50;;;;;25.76;100.00;100555.72;5058169;28;45387;-73
2023/08/25 05:40:03;;;;;;;;;46.00;36.75;;;;;25.78;100.00;100575.47;5057013;28;45652;-73
2023/08/25 05:42:31;;;;;;;;;46.50;37.50;;;;;25.70;100.00;100585.78;5057363;28;45277;-73
2023/08/25 05:44:56;;;;;;;;;48.50;38.75;;;;;25.71;100.00;100589.38;5039679;28;45242;-73
2023/08/25 05:47:22;;;;;;;;;44.75;39.25;;;;;25.69;100.00;100580.47;5057348;28;63507;-73
2023/08/25 05:49:48;;;;;;;;;46.75;38.25;;;;;25.70;100.00;100588.50;5055999;28;46465;-73
2023/08/25 05:52:13;;;;;;;;;38.75;34.00;;;;;25.66;100.00;100602.28;5057368;28;45259;-73
2023/08/25 05:54:39;;;;;;;;;45.75;37.25;;;;;25.57;100.00;100598.25;5057890;28;45510;-73
2023/08/25 05:57:04;;;;;;;;;42.00;35.50;;;;;25.55;100.00;100592.03;5051280;28;56191;-73
2023/08/25 05:59:32;;;;;;;;;43.00;35.75;;;;;25.53;100.00;100594.84;5056660;28;46645;-72
2023/08/25 06:01:57;;;;;;;;;44.00;37.00;;;;;25.54;100.00;100588.47;5057030;28;45308;-73
2023/08/25 06:04:23;;;;;;;;;41.50;37.00;;;;;25.53;100.00;100586.72;5052849;28;46105;-73
2023/08/25 06:06:48;;;;;;;;;42.25;36.00;;;;;25.51;100.00;100574.25;5057463;28;54262;-73
2023/08/25 06:09:15;;;;;;;;;41.25;36.50;;;;;25.49;100.00;100571.63;5056261;28;61437;-73
2023/08/25 06:11:41;;;;;;;;;39.33;36.00;;;;;25.48;100.00;100558.22;5040856;28;45476;-73
2023/08/25 06:14:07;;;;;;;;;34.25;31.00;;;;;25.51;100.00;100566.13;5051043;28;61449;-73
2023/08/25 06:16:32;;;;;;;;;41.00;34.50;;;;;25.53;100.00;100572.34;5051822;28;45530;-73
2023/08/25 06:18:57;;;;;;;;;40.75;34.75;;;;;25.51;100.00;100572.41;5055096;28;47174;-74
2023/08/25 06:21:23;;;;;;;;;40.33;35.00;;;;;25.50;100.00;100578.78;5056178;28;67908;-73
2023/08/25 06:23:48;;;;;;;;;35.67;33.00;;;;;25.51;100.00;100585.94;5056269;28;45364;-73
2023/08/25 06:26:14;;;;;;;;;36.00;30.33;;;;;25.50;100.00;100592.28;5055960;28;62801;-74
2023/08/25 06:28:39;;;;;;;;;28.00;26.67;;;;;25.49;100.00;100584.28;5053053;28;46558;-73
2023/08/25 06:31:08;;;;;;;;;29.33;29.33;;;;;25.39;100.00;100586.59;5041150;28;46783;-72
2023/08/25 06:33:33;;;;;;;;;28.33;28.33;;;;;25.38;100.00;100590.28;5055617;28;45435;-74
2023/08/25 06:35:58;;;;;;;;;29.67;26.33;;;;;25.31;100.00;100596.97;5055847;28;53006;-73
2023/08/25 06:38:24;;;;;;;;;24.00;22.00;;;;;25.25;100.00;100597.31;5055709;28;45594;-74
2023/08/25 06:40:50;;;;;;;;;29.67;24.33;;;;;25.23;100.00;100599.19;5065786;28;45385;-73
2023/08/25 06:43:16;;;;;;;;;27.33;24.00;;;;;25.21;100.00;100593.88;5055921;28;45990;-74
2023/08/25 06:45:41;;;;;;;;;24.67;23.33;;;;;25.19;100.00;100593.06;5054593;28;52990;-74
2023/08/25 06:48:07;;;;;;;;;27.67;24.67;;;;;25.15;100.00;100588.81;5054174;28;70257;-74
2023/08/25 06:50:32;;;;;;;;;27.33;25.00;;;;;25.15;100.00;100590.66;5055867;28;63628;-73
2023/08/25 06:52:57;;;;;;;;;30.00;28.00;;;;;25.18;100.00;100585.94;5055940;28;45377;-73
2023/08/25 06:55:25;;;;;;;;;22.67;22.00;;;;;25.20;100.00;100577.78;5055719;28;60293;-72
2023/08/25 06:57:50;;;;;;;;;22.67;20.00;;;;;25.15;100.00;100591.53;5056361;28;46680;-73
2023/08/25 07:00:17;;;;;;;;;23.33;23.33;;;;;25.19;100.00;100601.19;5056163;28;53763;-73
2023/08/25 07:02:43;;;;;;;;;20.00;20.00;;;;;25.18;100.00;100601.28;5056092;28;45404;-73
2023/08/25 07:05:09;;;;;;;;;23.67;22.00;;;;;25.15;100.00;100596.94;5056079;28;45395;-73
2023/08/25 07:07:35;;;;;;;;;17.33;16.33;;;;;25.17;100.00;100589.59;5054966;28;46847;-73
2023/08/25 07:10:01;;;;;;;;;16.00;16.00;;;;;25.18;100.00;100580.53;5056054;28;45408;-73
2023/08/25 07:12:26;;;;;;;;;17.67;16.33;;;;;25.20;100.00;100575.06;5053465;28;45356;-73
2023/08/25 07:14:52;;;;;;;;;19.67;16.67;;;;;25.24;100.00;100576.63;5055070;28;49542;-75
2023/08/25 07:17:17;;;;;;;;;18.67;14.67;;;;;25.30;100.00;100579.88;5054972;28;46568;-72
2023/08/25 07:19:43;;;;;;;;;15.33;14.67;;;;;25.34;100.00;100584.16;5054630;28;59034;-72
2023/08/25 07:22:08;;;;;;;;;16.33;16.33;;;;;25.41;100.00;100583.81;5054201;28;45522;-72
2023/08/25 07:24:34;;;;;;;;;17.33;15.67;;;;;25.42;100.00;100582.88;5054223;28;50882;-73
2023/08/25 07:27:00;;;;;;;;;16.67;13.67;;;;;25.45;100.00;100582.69;5053126;28;45590;-72
2023/08/25 07:29:25;;;;;;;;;17.67;15.00;;;;;25.50;100.00;100583.31;5052692;28;45237;-72
2023/08/25 07:31:52;;;;;;;;;15.67;15.67;;;;;25.49;100.00;100584.28;5051565;28;45443;-73
2023/08/25 07:34:17;;;;;;;;;17.00;15.33;;;;;25.49;100.00;100593.25;5036583;28;45633;-73
2023/08/25 07:36:43;;;;;;;;;13.33;13.33;;;;;25.42;100.00;100605.38;5046112;28;45474;-72
2023/08/25 07:39:08;;;;;;;;;12.33;12.33;;;;;25.41;100.00;100616.25;5052583;28;45205;-72
2023/08/25 07:41:34;;;;;;;;;16.00;14.00;;;;;25.34;100.00;100619.28;5058130;28;45288;-73
2023/08/25 07:46:37;;;;;;;;;17.00;15.33;;;;;25.31;100.00;100615.91;4978525;22;45569;-72
2023/08/25 07:49:03;;;;;;;;;16.00;15.67;;;;;25.29;100.00;100626.75;5067509;28;45419;-73
2023/08/25 07:51:28;;;;;;;;;18.00;15.67;;;;;25.25;100.00;100627.91;5066740;28;45514;-72
2023/08/25 07:53:54;;;;;;;;;14.67;13.33;;;;;25.22;100.00;100638.00;5052468;28;63866;-73
2023/08/25 07:56:19;;;;;;;;;12.00;10.33;;;;;25.14;100.00;100635.72;5069188;28;57532;-72
2023/08/25 07:58:44;;;;;;;;;8.33;8.33;;;;;25.06;100.00;100640.63;5068238;28;45449;-73
2023/08/25 08:01:11;;;;;;;;;8.00;6.67;;;;;25.03;100.00;100646.16;5070695;28;45522;-72
2023/08/25 08:03:36;;;;;;;;;2.67;2.67;;;;;24.99;100.00;100650.84;5053513;28;45710;-72
2023/08/25 08:06:02;;;;;;;;;6.67;5.00;;;;;24.91;100.00;100646.78;5070931;28;45626;-72
2023/08/25 08:08:27;;;;;;;;;6.00;5.33;;;;;24.84;100.00;100648.94;5065112;28;45640;-72
2023/08/25 08:10:53;;;;;;;;;5.00;5.00;;;;;24.80;100.00;100652.75;5070787;28;45416;-72
2023/08/25 08:13:18;;;;;;;;;6.33;5.00;;;;;24.77;100.00;100663.72;5066746;28;45471;-72
2023/08/25 08:15:43;;;;;;;;;4.00;4.00;;;;;24.75;100.00;100665.59;5066974;28;55764;-72
2023/08/25 08:18:09;;;;;;;;;5.33;5.33;;;;;24.70;100.00;100664.97;5055788;28;65316;-73
2023/08/25 08:20:35;;;;;;;;;2.67;2.67;;;;;24.68;100.00;100665.03;5069427;28;45546;-73
2023/08/25 08:23:00;;;;;;;;;3.00;3.00;;;;;24.59;100.00;100661.94;5075885;28;45403;-72
2023/08/25 08:25:26;;;;;;;;;2.00;2.00;;;;;24.56;100.00;100658.44;5075086;28;45746;-73
2023/08/25 08:27:51;;;;;;;;;6.33;3.67;;;;;24.64;100.00;100665.28;5072956;28;45451;-72
2023/08/25 08:30:19;;;;;;;;;2.33;2.33;;;;;24.61;100.00;100682.50;5071407;28;46022;-72
2023/08/25 08:32:44;;;;;;;;;2.00;2.00;;;;;24.58;100.00;100679.09;5073935;28;45530;-71
2023/08/25 08:35:10;;;;;;;;;2.00;2.00;;;;;24.56;100.00;100682.75;5072683;27;46376;-72
2023/08/25 08:37:36;;;;;;;;;1.00;1.00;;;;;24.56;100.00;100688.13;5074790;28;45411;-72
2023/08/25 08:40:04;;;;;;;;;1.00;1.00;;;;;24.53;100.00;100690.97;5056025;27;45621;-72
2023/08/25 08:42:32;;;;;;;;;1.00;1.00;;;;;24.51;100.00;100684.78;5072787;27;45550;-73
2023/08/25 08:45:05;;;;;;;;;2.33;1.00;;;;;24.49;100.00;100691.19;5071586;28;46375;-73
2023/08/25 08:47:37;;;;;;;;;1.00;1.00;;;;;24.48;100.00;100694.84;5057850;28;45285;-73
2023/08/25 08:50:03;;;;;;;;;3.00;1.00;;;;;24.45;100.00;100697.69;5076797;28;45510;-72
2023/08/25 08:52:29;;;;;;;;;1.00;1.00;;;;;24.45;100.00;100701.28;5074304;28;45605;-72
2023/08/25 08:54:57;;;;;;;;;2.00;1.00;;;;;24.50;100.00;100701.03;5072254;28;45807;-72
2023/08/25 08:57:24;;;;;;;;;3.00;3.00;;;;;24.59;100.00;100697.03;5072359;28;45273;-73
2023/08/25 08:59:51;;;;;;;;;1.00;1.00;;;;;24.63;100.00;100690.53;5074807;28;45357;-73
2023/08/25 09:02:18;;;;;;;;;2.00;2.00;;;;;24.72;100.00;100690.94;5076723;28;45537;-74
2023/08/25 09:04:45;;;;;;;;;1.00;1.00;;;;;24.79;100.00;100694.22;5075681;28;45842;-73
2023/08/25 09:07:11;;;;;;;;;1.33;1.33;;;;;24.84;100.00;100697.56;5051331;28;63071;-73
2023/08/25 09:09:38;;;;;;;;;1.67;1.00;;;;;24.94;100.00;100690.75;5073120;28;45502;-73
2023/08/25 09:12:04;;;;;;;;;2.67;1.00;;;;;24.99;100.00;100699.47;5078425;28;45497;-74
2023/08/25 09:14:29;;;;;;;;;1.00;1.00;;;;;25.11;100.00;100697.13;5078226;28;47021;-73
2023/08/25 09:16:56;;;;;;;;;1.33;1.33;;;;;25.18;100.00;100698.56;5077620;28;45540;-72
2023/08/25 09:19:22;;;;;;;;;1.00;1.00;;;;;25.23;100.00;100702.78;5041007;28;45451;-73
2023/08/25 09:21:47;;;;;;;;;4.33;2.00;;;;;25.24;100.00;100696.41;5059435;28;45427;-73
2023/08/25 09:24:20;;;;;;;;;4.67;1.33;;;;;25.26;100.00;100696.34;5058094;28;45753;-73
2023/08/25 09:26:46;;;;;;;;;3.00;1.67;;;;;25.26;100.00;100702.63;5077296;28;45221;-72
2023/08/25 09:29:11;;;;;;;;;1.00;1.00;;;;;25.22;100.00;100717.25;5077612;28;45458;-73
2023/08/25 09:31:37;;;;;;;;;3.00;2.00;;;;;25.18;100.00;100712.94;5077088;28;52261;-73
2023/08/25 09:34:13;;;;;;;;;3.00;3.00;;;;;25.13;100.00;100717.72;5059022;27;46667;-73
2023/08/25 09:36:52;;;;;;;;;3.00;3.00;;;;;25.13;100.00;100717.72;5075962;28;45143;-73
2023/08/25 09:39:18;;;;;;;;;3.33;3.00;;;;;25.14;100.00;100713.16;5077983;28;45517;-73
2023/08/25 09:41:44;;;;;;;;;3.00;3.00;;;;;25.16;100.00;100714.00;5080533;27;45239;-74
2023/08/25 09:44:10;;;;;;;;;4.67;3.33;;;;;25.20;100.00;100719.16;5082319;27;46760;-73
2023/08/25 09:46:36;;;;;;;;;4.67;2.00;;;;;25.21;100.00;100720.03;5060042;27;45484;-73
2023/08/25 09:49:06;;;;;;;;;3.67;3.67;;;;;25.24;100.00;100725.25;5080154;27;45291;-73
2023/08/25 09:51:36;;;;;;;;;3.00;2.00;;;;;25.27;100.00;100728.69;5082319;27;45347;-73
2023/08/25 09:54:06;;;;;;;;;5.00;3.67;;;;;25.27;100.00;100736.81;5083277;27;46474;-74
2023/08/25 09:56:33;;;;;;;;;3.00;2.33;;;;;25.28;100.00;100729.56;5079550;27;45384;-73
2023/08/25 09:59:00;;;;;;;;;2.67;2.67;;;;;25.25;100.00;100732.44;5077063;28;45372;-74
2023/08/25 10:01:25;;;;;;;;;2.67;2.67;;;;;25.30;100.00;100724.94;5045822;28;45502;-73
2023/08/25 10:03:52;;;;;;;;;4.00;3.67;;;;;25.32;100.00;100732.03;5071346;28;54750;-73
2023/08/25 10:06:18;;;;;;;;;3.00;3.00;;;;;25.34;100.00;100734.66;5069463;28;45353;-74
2023/08/25 10:08:43;;;;;;;;;3.33;3.33;;;;;25.34;100.00;100731.94;5077543;28;45873;-75
2023/08/25 10:11:11;;;;;;;;;5.33;3.33;;;;;25.32;100.00;100723.91;5052206;28;47255;-73
2023/08/25 10:13:37;;;;;;;;;2.67;2.00;;;;;25.37;100.00;100723.69;5054018;28;46420;-73
2023/08/25 10:16:04;;;;;;;;;4.00;2.00;;;;;25.42;100.00;100729.72;5055548;28;45535;-73
2023/08/25 10:18:35;;;;;;;;;3.00;3.00;;;;;25.48;100.00;100724.00;5077518;28;45498;-73
2023/08/25 10:21:01;;;;;;;;;3.67;3.00;;;;;25.52;100.00;100716.59;5077433;28;45204;-74
2023/08/25 10:23:28;;;;;;;;;3.67;3.67;;;;;25.49;100.00;100720.34;5071958;28;53161;-73
2023/08/25 10:25:53;;;;;;;;;5.00;3.00;;;;;25.49;100.00;100719.47;5059513;28;45343;-73
2023/08/25 10:28:19;;;;;;;;;4.00;2.00;;;;;25.45;100.00;100718.72;5071060;28;50305;-74
2023/08/25 10:30:45;;;;;;;;;2.67;2.67;;;;;25.37;100.00;100723.69;5075231;28;45634;-73
2023/08/25 10:33:11;;;;;;;;;6.67;6.00;;;;;25.35;100.00;100733.69;5059234;28;46457;-73
2023/08/25 10:35:46;;;;;;;;;4.00;4.00;;;;;25.33;100.00;100744.59;5074616;27;45554;-75
2023/08/25 10:38:34;;;;;;;;;4.00;4.00;;;;;25.31;100.00;100751.91;5077260;28;45447;-74
2023/08/25 10:41:13;;;;;;;;;4.33;3.00;;;;;25.26;100.00;100748.56;5079939;27;45432;-72
2023/08/25 10:43:38;;;;;;;;;3.67;3.67;;;;;25.23;100.00;100742.44;5082140;27;45685;-73
2023/08/25 10:46:07;;;;;;;;;3.00;3.00;;;;;25.23;100.00;100742.44;5078985;27;45295;-74
2023/08/25 10:48:33;;;;;;;;;5.00;4.00;;;;;25.22;100.00;100754.19;5075630;27;45447;-73
2023/08/25 10:51:08;;;;;;;;;4.00;4.00;;;;;25.21;100.00;100741.66;5060504;28;45402;-73
2023/08/25 10:53:45;;;;;;;;;4.67;3.67;;;;;25.24;100.00;100752.28;5085690;27;47539;-73
2023/08/25 10:56:16;;;;;;;;;7.00;5.67;;;;;25.32;100.00;100750.06;5062088;28;45217;-73
2023/08/25 10:58:42;;;;;;;;;9.33;5.00;;;;;25.39;100.00;100750.63;5083519;27;45886;-73
2023/08/25 11:01:08;;;;;;;;;9.67;6.33;;;;;25.42;100.00;100745.94;5080385;27;46035;-73
2023/08/25 11:04:07;;;;;;;;;7.00;7.00;;;;;25.50;100.00;100750.94;5079850;27;45338;-74
2023/08/25 11:06:43;;;;;;;;;10.33;6.00;;;;;25.65;100.00;100738.44;5019211;28;45642;-73